Time;durP1;ratioP1;P1;durP2;ratioP2;P2;SDS_P1;SDS_P2;PMS_P1;PMS_P2;Temp;Humidity;BMP_temperature;BMP_pressure;BME280_temperature;BME280_humidity;BME280_pressure;Samples;Min_cycle;Max_cycle;Signal;HPM_P1;HPM_P2
2022/02/02 00:00:54;;;;;;;3.70;2.47;;;;;;;2.05;100.00;96721.50;5002030;28;20045;-62
2022/02/02 00:03:22;;;;;;;3.67;2.50;;;;;;;2.11;100.00;96719.47;4993051;28;20038;-62
2022/02/02 00:08:33;;;;;;;3.40;2.35;;;;;;;2.12;100.00;96722.94;4994668;28;20391;-63
2022/02/02 00:21:05;;;;;;;3.30;2.35;;;;;;;2.22;100.00;96690.25;5001151;28;20132;-62
2022/02/02 00:23:37;;;;;;;3.10;2.22;;;;;;;2.22;100.00;96701.84;5000019;28;20046;-62
2022/02/02 00:26:08;;;;;;;3.97;2.33;;;;;;;2.24;100.00;96717.75;4996082;28;20081;-63
2022/02/02 00:28:39;;;;;;;3.13;2.30;;;;;;;2.23;100.00;96730.47;4998451;28;20124;-62
2022/02/02 00:31:09;;;;;;;3.25;2.10;;;;;;;2.24;100.00;96731.28;4991603;28;20037;-63
2022/02/02 00:33:53;;;;;;;4.25;2.63;;;;;;;2.28;100.00;96705.22;5007840;28;20121;-61
2022/02/02 00:36:23;;;;;;;3.67;2.25;;;;;;;2.38;100.00;96702.22;5015341;28;20045;-63
2022/02/02 00:38:49;;;;;;;2.50;2.00;;;;;;;2.34;100.00;96685.06;4997078;28;20097;-63
2022/02/02 00:41:14;;;;;;;3.90;2.00;;;;;;;2.38;100.00;96696.03;4994075;28;20464;-62
2022/02/02 00:43:41;;;;;;;2.63;1.90;;;;;;;2.42;100.00;96703.19;5001324;28;20438;-63
2022/02/02 00:46:07;;;;;;;2.90;2.13;;;;;;;2.45;100.00;96694.47;4994971;28;20048;-63
2022/02/02 00:48:34;;;;;;;2.55;1.83;;;;;;;2.45;100.00;96691.75;5000661;28;20365;-62
2022/02/02 00:50:59;;;;;;;3.03;2.22;;;;;;;2.40;100.00;96705.41;5000773;28;20056;-62
2022/02/02 00:53:25;;;;;;;4.68;2.45;;;;;;;2.40;100.00;96683.78;4994211;28;20042;-63
2022/02/02 00:55:52;;;;;;;2.80;2.20;;;;;;;2.42;100.00;96699.69;5008625;28;20117;-62
2022/02/02 00:58:18;;;;;;;2.53;1.75;;;;;;;2.45;100.00;96694.47;4994213;28;20450;-62
2022/02/02 01:00:44;;;;;;;2.63;2.15;;;;;;;2.45;100.00;96699.09;4999363;28;20056;-62
2022/02/02 01:03:09;;;;;;;3.33;2.33;;;;;;;2.44;100.00;96698.25;4994281;28;20057;-61
2022/02/02 01:05:34;;;;;;;4.35;2.03;;;;;;;2.45;100.00;96704.50;5003320;28;20609;-62
2022/02/02 01:10:38;;;;;;;1.98;1.77;;;;;;;2.53;100.00;96722.63;5000941;28;20046;-62
2022/02/02 01:18:58;;;;;;;2.78;2.00;;;;;;;2.62;100.00;96695.63;4905825;29;20083;-61
2022/02/02 01:27:42;;;;;;;2.47;2.10;;;;;;;2.65;100.00;96695.78;4996953;28;20042;-61
2022/02/02 01:29:42;;;;;;;2.80;2.05;;;;;;;2.71;100.00;96699.13;5003807;28;20446;-64
2022/02/02 01:32:07;;;;;;;2.97;2.47;;;;;;;2.75;100.00;96691.97;4997168;28;20263;-64
2022/02/02 01:34:32;;;;;;;3.05;2.13;;;;;;;2.77;100.00;96692.44;4998559;28;20037;-62
2022/02/02 01:36:58;;;;;;;2.60;2.10;;;;;;;2.74;100.00;96693.09;5003969;28;20436;-60
2022/02/02 01:39:27;;;;;;;2.33;1.85;;;;;;;2.73;100.00;96680.66;4997931;28;20046;-62
2022/02/02 01:41:53;;;;;;;3.00;2.00;;;;;;;2.68;100.00;96695.16;5004264;28;20037;-59
2022/02/02 01:44:36;;;;;;;2.40;1.70;;;;;;;2.64;100.00;96699.59;4996828;28;20084;-57
2022/02/02 01:47:03;;;;;;;3.13;2.25;;;;;;;2.60;100.00;96695.13;5010975;28;20486;-61
2022/02/02 01:59:48;;;;;;;2.60;1.90;;;;;;;2.57;100.00;96690.34;5011036;28;20095;-60
2022/02/02 02:02:14;;;;;;;4.30;2.30;;;;;;;2.56;100.00;96667.94;4995118;28;20045;-60
2022/02/02 02:04:39;;;;;;;4.10;2.53;;;;;;;2.60;100.00;96682.41;5003389;28;20092;-59
2022/02/02 02:07:05;;;;;;;3.35;2.50;;;;;;;2.64;100.00;96699.59;4997809;28;20084;-60
2022/02/02 02:09:32;;;;;;;3.42;2.35;;;;;;;2.68;100.00;96683.53;4997610;28;20499;-62
2022/02/02 02:12:00;;;;;;;2.83;2.25;;;;;;;2.79;100.00;96673.19;5002778;28;20045;-60
2022/02/02 02:17:10;;;;;;;3.53;2.30;;;;;;;2.83;100.00;96682.28;4998263;28;20037;-63
2022/02/02 02:19:38;;;;;;;4.45;2.35;;;;;;;2.82;100.00;96686.88;5002671;28;20042;-63
2022/02/02 02:22:09;;;;;;;4.40;2.50;;;;;;;2.85;100.00;96696.28;5006939;28;20041;-62
2022/02/02 02:24:37;;;;;;;6.40;2.90;;;;;;;2.90;100.00;96690.75;5001937;28;20034;-63
2022/02/02 02:27:03;;;;;;;2.45;1.95;;;;;;;2.89;100.00;96693.75;4998133;28;20049;-60
2022/02/02 02:32:56;;;;;;;3.47;2.22;;;;;;;2.92;100.00;96687.69;5017439;28;20055;-62
2022/02/02 02:56:59;;;;;;;3.58;2.28;;;;;;;3.11;100.00;96661.13;4998193;28;20129;-63
2022/02/02 02:59:37;;;;;;;3.15;2.28;;;;;;;3.10;100.00;96656.03;4993006;28;20459;-64
2022/02/02 03:35:17;;;;;;;3.78;2.20;;;;;;;3.30;100.00;96644.56;4999015;28;20049;-62
2022/02/02 04:06:43;;;;;;;7.10;3.00;;;;;;;3.40;100.00;96665.06;5008546;28;20067;-62
2022/02/02 04:09:09;;;;;;;3.72;2.70;;;;;;;3.43;100.00;96667.16;4998525;28;20573;-62
2022/02/02 04:11:44;;;;;;;4.65;2.88;;;;;;;3.44;100.00;96661.41;5004572;28;20045;-61
2022/02/02 04:53:00;;;;;;;2.78;1.92;;;;;;;3.55;100.00;96656.47;4996478;28;20045;-61
2022/02/02 04:55:12;;;;;;;2.45;1.90;;;;;;;3.58;100.00;96650.41;5008158;28;20046;-59
2022/02/02 05:03:41;;;;;;;2.30;1.70;;;;;;;3.59;100.00;96654.69;4997138;28;20116;-60
2022/02/02 05:08:29;;;;;;;3.30;2.03;;;;;;;3.55;100.00;96645.63;4992997;28;20050;-61
2022/02/02 05:15:14;;;;;;;3.78;2.30;;;;;;;3.65;100.00;96652.59;4960831;28;20034;-62
2022/02/02 05:53:44;;;;;;;4.00;2.45;;;;;;;3.80;100.00;96700.06;4997457;28;20041;-62
2022/02/02 05:56:09;;;;;;;4.00;2.88;;;;;;;3.85;100.00;96701.81;4991901;28;20042;-62
2022/02/02 05:58:39;;;;;;;6.65;2.78;;;;;;;3.89;100.00;96719.00;4996379;28;20069;-62
2022/02/02 06:01:10;;;;;;;3.40;2.58;;;;;;;3.88;100.00;96704.66;4990422;28;20038;-63
2022/02/02 06:03:59;;;;;;;4.50;2.40;;;;;;;3.91;100.00;96736.53;4981506;28;20046;-63
2022/02/02 06:06:26;;;;;;;7.13;2.97;;;;;;;3.92;100.00;96729.19;4994761;28;20137;-62
2022/02/02 06:08:53;;;;;;;7.93;3.13;;;;;;;3.93;100.00;96720.75;4999898;28;20064;-62
2022/02/02 06:11:21;;;;;;;5.65;2.83;;;;;;;3.91;100.00;96709.44;4993930;28;20121;-63
2022/02/02 06:13:51;;;;;;;5.50;2.60;;;;;;;3.94;100.00;96718.84;5002591;28;20054;-61
2022/02/02 06:16:19;;;;;;;5.22;3.40;;;;;;;3.92;100.00;96702.88;4994124;28;20044;-62
2022/02/02 06:18:53;;;;;;;7.85;3.67;;;;;;;3.96;100.00;96712.00;5006400;28;20442;-63
2022/02/02 06:21:41;;;;;;;6.05;3.15;;;;;;;3.97;100.00;96704.66;5000735;28;20491;-62
2022/02/02 06:24:11;;;;;;;7.95;3.47;;;;;;;3.93;100.00;96706.41;4991810;28;20065;-60
2022/02/02 06:26:39;;;;;;;5.75;3.55;;;;;;;3.90;100.00;96710.56;5001245;28;20394;-58
2022/02/02 06:29:10;;;;;;;7.57;3.70;;;;;;;3.89;100.00;96713.56;4995029;28;20070;-62
2022/02/02 06:31:38;;;;;;;9.35;3.80;;;;;;;3.95;100.00;96717.72;5001890;28;20038;-63
2022/02/02 06:34:07;;;;;;;8.60;4.03;;;;;;;3.95;100.00;96721.22;4998777;28;20046;-63
2022/02/02 06:36:36;;;;;;;4.68;3.42;;;;;;;3.94;100.00;96725.06;5002130;28;20050;-62
2022/02/02 06:39:03;;;;;;;8.68;3.60;;;;;;;4.00;100.00;96725.69;5005796;28;20042;-63
2022/02/02 06:41:29;;;;;;;5.03;3.22;;;;;;;4.02;100.00;96737.00;4997893;28;20038;-62
2022/02/02 06:43:55;;;;;;;8.45;3.53;;;;;;;4.02;100.00;96735.06;4997482;28;20049;-61
2022/02/02 06:46:25;;;;;;;7.43;3.22;;;;;;;4.05;100.00;96727.41;4995945;28;20042;-63
2022/02/02 06:48:50;;;;;;;;;;;;;;;4.09;100.00;96729.16;5000409;28;20049;-61
2022/02/02 06:51:31;;;;;;;6.70;3.22;;;;;;;4.07;100.00;96733.31;4995160;28;19925;-61
2022/02/02 06:54:07;;;;;;;7.18;3.00;;;;;;;4.05;100.00;96735.53;4997729;28;20045;-63
2022/02/02 06:56:50;;;;;;;6.38;3.15;;;;;;;4.05;100.00;96736.34;5000323;28;20556;-63
2022/02/02 07:04:38;;;;;;;6.55;2.47;;;;;;;4.32;100.00;96746.00;4997488;28;20048;-63
2022/02/02 07:07:18;;;;;;;5.53;2.55;;;;;;;4.46;100.00;96747.69;4981994;28;20056;-62
2022/02/02 07:12:45;;;;;;;5.97;2.10;;;;;;;4.48;100.00;96765.22;4994508;28;20438;-64
2022/02/02 07:18:08;;;;;;;6.80;1.95;;;;;;;4.62;100.00;96753.38;4998771;28;20520;-62
2022/02/02 07:20:52;;;;;;;6.95;2.20;;;;;;;4.71;100.00;96757.63;5000784;28;20045;-62
2022/02/02 07:23:39;;;;;;;6.97;1.80;;;;;;;4.71;100.00;96757.63;4995300;28;20395;-63
2022/02/02 07:31:33;;;;;;;7.45;2.03;;;;;;;4.70;100.00;96785.06;4992058;28;20400;-63
2022/02/02 07:34:29;;;;;;;5.30;2.15;;;;;;;4.67;100.00;96789.25;5001744;28;20053;-63
2022/02/02 07:36:58;;;;;;;5.18;2.45;;;;;;;4.57;100.00;96795.84;4985541;28;20148;-63
2022/02/02 07:39:26;;;;;;;4.68;2.55;;;;;;;4.59;100.00;96793.59;5001752;28;20240;-61
2022/02/02 07:41:58;;;;;;;6.90;2.13;;;;;;;4.51;100.00;96785.50;5006118;28;20038;-64
2022/02/02 07:44:26;;;;;;;8.18;3.17;;;;;;;4.57;100.00;96795.03;5000150;28;20034;-63
2022/02/02 07:46:54;;;;;;;4.95;2.10;;;;;;;4.56;100.00;96804.31;5020806;28;20065;-63
2022/02/02 07:49:33;;;;;;;9.30;2.35;;;;;;;4.58;100.00;96815.63;4991404;28;20509;-62
2022/02/02 07:52:00;;;;;;;5.05;2.17;;;;;;;4.58;100.00;96821.03;5002443;28;20180;-63
2022/02/02 07:54:34;;;;;;;11.90;2.30;;;;;;;4.59;100.00;96828.88;4992763;28;20053;-64
2022/02/02 07:57:10;;;;;;;9.02;2.20;;;;;;;4.63;100.00;96831.72;5002041;28;20054;-65
2022/02/02 07:59:47;;;;;;;9.10;2.80;;;;;;;4.67;100.00;96838.09;4999844;28;20053;-64
2022/02/02 08:02:14;;;;;;;12.57;2.15;;;;;;;4.71;100.00;96828.16;5010446;28;20042;-64
2022/02/02 08:04:40;;;;;;;6.47;1.65;;;;;;;4.74;100.00;96843.03;5000568;28;20135;-64
2022/02/02 08:07:12;;;;;;;5.47;1.60;;;;;;;4.81;100.00;96853.34;4997340;28;20507;-64
2022/02/02 08:09:44;;;;;;;5.03;1.73;;;;;;;4.81;100.00;96856.06;5000584;28;20411;-64
2022/02/02 08:12:16;;;;;;;6.60;1.90;;;;;;;4.82;100.00;96861.16;4995127;28;20867;-63
2022/02/02 08:14:43;;;;;;;8.80;1.90;;;;;;;4.87;100.00;96857.50;4999225;28;20037;-64
2022/02/02 08:17:08;;;;;;;4.20;1.77;;;;;;;4.81;100.00;96850.63;4990826;28;20057;-62
2022/02/02 08:19:35;;;;;;;6.38;1.90;;;;;;;4.78;100.00;96855.59;4998663;28;20191;-62
2022/02/02 08:22:00;;;;;;;4.40;2.35;;;;;;;4.77;100.00;96855.91;4996851;28;20046;-63
2022/02/02 08:24:27;;;;;;;4.30;2.50;;;;;;;4.73;100.00;96868.53;4993775;28;20066;-64
2022/02/02 08:26:55;;;;;;;6.63;2.80;;;;;;;4.74;100.00;96862.81;5005660;28;20104;-64
2022/02/02 08:29:22;;;;;;;8.93;2.75;;;;;;;4.73;100.00;96863.13;5009709;28;20037;-63
2022/02/02 08:31:47;;;;;;;7.07;2.92;;;;;;;4.78;100.00;96871.09;5003512;28;20429;-63
2022/02/02 08:34:13;;;;;;;8.18;3.53;;;;;;;4.78;100.00;96866.44;4994675;28;20137;-63
2022/02/02 08:36:40;;;;;;;9.68;3.90;;;;;;;4.80;100.00;96866.13;4999654;28;20041;-63
2022/02/02 08:39:16;;;;;;;5.32;2.83;;;;;;;4.87;100.00;96861.00;4994028;28;20073;-63
2022/02/02 08:41:56;;;;;;;7.00;1.85;;;;;;;4.94;100.00;96855.84;4997150;28;20038;-64
2022/02/02 08:44:26;;;;;;;16.98;5.60;;;;;;;4.97;100.00;96849.00;4993631;28;20053;-63
2022/02/02 08:47:06;;;;;;;6.13;2.78;;;;;;;5.00;100.00;96863.81;4999350;28;20134;-63
2022/02/02 08:49:36;;;;;;;6.60;2.08;;;;;;;5.05;100.00;96877.22;4995105;28;20081;-64
2022/02/02 08:52:03;;;;;;;2.90;1.60;;;;;;;5.10;100.00;96883.25;5002034;28;20052;-61
2022/02/02 08:54:44;;;;;;;4.55;1.90;;;;;;;5.10;100.00;96891.41;5001585;28;20259;-61
2022/02/02 08:58:08;;;;;;;5.00;2.00;;;;;;;5.05;100.00;96902.44;5001836;28;20042;-62
2022/02/02 09:00:05;;;;;;;7.72;2.45;;;;;;;4.94;100.00;96912.84;4985021;28;20054;-62
2022/02/02 09:02:33;;;;;;;7.07;2.17;;;;;;;4.94;100.00;96907.44;4999902;28;20427;-62
2022/02/02 09:07:42;;;;;;;5.38;1.90;;;;;;;4.84;100.00;96915.13;5000116;28;20050;-63
2022/02/02 09:10:15;;;;;;;6.97;2.28;;;;;;;4.79;100.00;96932.41;4995819;28;20048;-63
2022/02/02 09:23:35;;;;;;;9.57;2.15;;;;;;;4.89;100.00;96937.47;4992351;28;20115;-63
2022/02/02 09:31:37;;;;;;;8.05;2.25;;;;;;;5.09;100.00;96970.47;4964263;28;20807;-65
2022/02/02 09:34:06;;;;;;;2.70;1.40;;;;;;;5.12;100.00;96970.59;4991039;28;20037;-62
2022/02/02 09:36:34;;;;;;;4.55;1.75;;;;;;;5.30;100.00;96976.00;4993738;28;20074;-63
2022/02/02 09:39:08;;;;;;;3.17;1.38;;;;;;;5.45;100.00;96978.16;4995706;28;20528;-63
2022/02/02 09:41:45;;;;;;;3.25;1.40;;;;;;;5.38;100.00;96956.13;4999092;28;20041;-62
2022/02/02 09:44:16;;;;;;;4.00;1.50;;;;;;;5.16;100.00;96951.75;4995336;28;20062;-62
2022/02/02 09:49:21;;;;;;;5.80;1.60;;;;;;;5.36;100.00;96944.81;4997109;28;20049;-63
2022/02/02 09:52:12;;;;;;;8.48;2.10;;;;;;;5.38;100.00;96928.97;4997227;28;20054;-64
2022/02/02 09:57:31;;;;;;;6.78;2.42;;;;;;;5.58;100.00;96946.44;5011018;28;20056;-62
2022/02/02 10:05:26;;;;;;;6.65;2.03;;;;;;;5.34;100.00;96938.91;4967661;28;20041;-63
2022/02/02 10:08:09;;;;;;;4.25;1.55;;;;;;;5.24;100.00;96929.22;5001434;28;20086;-63
2022/02/02 10:10:52;;;;;;;5.65;1.70;;;;;;;5.29;100.00;96937.16;5002856;28;20138;-63
2022/02/02 10:13:51;;;;;;;6.88;2.03;;;;;;;5.28;100.00;96946.44;4999147;28;20046;-63
2022/02/02 10:16:20;;;;;;;3.85;1.67;;;;;;;5.33;100.00;96938.13;4994313;28;20050;-64
2022/02/02 10:18:46;;;;;;;7.53;2.83;;;;;;;5.39;100.00;96946.88;5001206;28;20047;-63
2022/02/02 10:21:11;;;;;;;8.05;2.35;;;;;;;5.46;100.00;96951.81;4996906;28;20060;-63
2022/02/02 10:23:37;;;;;;;8.38;2.65;;;;;;;5.51;100.00;96938.81;5002021;28;20070;-63
2022/02/02 10:26:22;;;;;;;6.68;2.10;;;;;;;5.47;100.00;96946.00;5001311;28;20046;-61
2022/02/02 10:28:49;;;;;;;4.75;2.30;;;;;;;5.35;100.00;96954.09;5000023;28;20042;-63
2022/02/02 10:31:16;;;;;;;6.22;3.03;;;;;;;5.33;100.00;96964.44;4991340;28;20441;-63
2022/02/02 10:33:42;;;;;;;7.88;2.35;;;;;;;5.40;100.00;96961.25;5001464;28;20042;-62
2022/02/02 10:36:22;;;;;;;7.20;2.47;;;;;;;5.32;100.00;96971.03;4996978;28;20552;-63
2022/02/02 10:39:07;;;;;;;;;;;;;;;5.36;100.00;96964.59;5004042;28;20450;-63
2022/02/02 10:41:44;;;;;;;8.90;2.05;;;;;;;5.34;100.00;96971.50;4997382;28;19997;-62
2022/02/02 10:44:36;;;;;;;5.68;2.20;;;;;;;5.35;100.00;96982.03;4997534;28;20495;-63
2022/02/02 10:47:29;;;;;;;6.60;1.98;;;;;;;5.41;100.00;96996.22;5005116;28;20085;-66
2022/02/02 10:50:26;;;;;;;4.90;1.80;;;;;;;5.52;100.00;97002.09;4996941;28;20049;-62
2022/02/02 10:56:06;;;;;;;8.88;2.53;;;;;;;5.57;100.00;96984.84;5002322;28;20050;-64
2022/02/02 11:06:47;;;;;;;8.80;2.10;;;;;;;5.71;100.00;96999.00;4992440;28;20591;-64
2022/02/02 11:09:15;;;;;;;6.53;2.78;;;;;;;5.74;100.00;96990.16;4974311;28;20050;-63
2022/02/02 11:11:47;;;;;;;6.55;2.08;;;;;;;5.88;100.00;96984.50;4981191;28;20038;-64
2022/02/02 11:14:37;;;;;;;10.05;2.58;;;;;;;5.93;100.00;96974.22;4994627;28;20133;-63
2022/02/02 11:17:23;;;;;;;9.00;2.50;;;;;;;6.02;100.00;96982.38;4989011;28;20046;-61
2022/02/02 11:19:54;;;;;;;5.82;2.13;;;;;;;6.02;100.00;96973.41;5007687;28;20037;-63
2022/02/02 11:22:32;;;;;;;6.47;1.98;;;;;;;6.05;100.00;96975.47;4997668;28;20038;-64
2022/02/02 11:25:04;;;;;;;8.43;2.10;;;;;;;6.16;100.00;96965.81;5002289;28;20088;-62
2022/02/02 11:27:36;;;;;;;8.73;2.22;;;;;;;6.21;100.00;96975.66;4998458;28;20136;-62
2022/02/02 11:30:08;;;;;;;6.68;1.80;;;;;;;6.26;100.00;96975.47;4999734;28;20049;-63
2022/02/02 11:32:42;;;;;;;5.30;1.98;;;;;;;6.19;100.00;96983.38;4998965;28;20136;-64
2022/02/02 11:35:36;;;;;;;10.32;2.50;;;;;;;6.26;100.00;96978.19;4993918;28;20050;-63
2022/02/02 11:38:06;;;;;;;4.75;1.85;;;;;;;6.25;100.00;96982.84;4994030;28;20037;-62
2022/02/02 11:40:39;;;;;;;3.65;1.65;;;;;;;6.23;100.00;96979.66;5000598;28;20060;-63
2022/02/02 11:43:15;;;;;;;5.68;1.90;;;;;;;6.31;100.00;96976.06;4991311;28;20104;-62
2022/02/02 11:45:44;;;;;;;3.20;1.60;;;;;;;6.30;100.00;96973.69;5011347;28;20494;-63
2022/02/02 11:48:17;;;;;;;4.20;1.70;;;;;;;6.30;100.00;96976.41;4993906;28;20050;-62
2022/02/02 11:50:53;;;;;;;5.88;1.67;;;;;;;6.31;100.00;96978.00;4999156;28;20037;-63
2022/02/02 11:53:46;;;;;;;4.50;1.63;;;;;;;6.34;100.00;96971.91;4995651;28;20090;-62
2022/02/02 11:56:12;;;;;;;5.78;1.60;;;;;;;6.35;100.00;96978.94;4990293;28;20495;-63
2022/02/02 11:58:37;;;;;;;6.72;2.13;;;;;;;6.36;100.00;96979.75;4999507;28;20053;-62
2022/02/02 12:04:18;;;;;;;5.63;1.95;;;;;;;6.38;100.00;96988.38;5001431;28;20052;-62
2022/02/02 12:06:59;;;;;;;3.35;1.45;;;;;;;6.32;100.00;96976.88;5008276;28;20057;-62
2022/02/02 12:09:42;;;;;;;8.70;2.55;;;;;;;6.35;100.00;96973.50;5003760;28;21237;-63
2022/02/02 12:58:04;;;;;;;4.28;1.40;;;;;;;6.41;100.00;96988.50;4997880;28;20045;-64
2022/02/02 13:02:59;;;;;;;1.77;1.20;;;;;;;6.59;100.00;96991.06;4995941;28;20652;-63
2022/02/02 13:05:25;;;;;;;6.32;1.95;;;;;;;6.51;100.00;97000.91;4994559;28;20041;-64
2022/02/02 13:07:53;;;;;;;2.58;1.20;;;;;;;6.41;100.00;97004.00;5000593;28;20038;-63
2022/02/02 13:10:25;;;;;;;2.28;1.10;;;;;;;6.48;100.00;97007.00;4993832;28;20068;-64
2022/02/02 13:13:07;;;;;;;3.20;1.45;;;;;;;6.42;100.00;97013.78;4999500;28;20044;-64
2022/02/02 13:23:38;;;;;;;2.85;1.20;;;;;;;6.51;100.00;97025.38;4993851;28;20811;-63
2022/02/02 13:26:11;;;;;;;2.53;1.58;;;;;;;6.48;100.00;97024.13;4994542;28;20438;-63
2022/02/02 13:28:45;;;;;;;3.30;1.90;;;;;;;6.49;100.00;97014.03;4998293;28;20373;-64
2022/02/02 13:31:53;;;;;;;3.17;1.55;;;;;;;6.45;100.00;97024.00;4993317;28;20092;-63
2022/02/02 13:56:34;;;;;;;4.70;1.40;;;;;;;5.98;100.00;97060.28;4999477;28;20049;-62
2022/02/02 13:59:22;;;;;;;4.70;1.30;;;;;;;5.97;100.00;97063.34;4997510;28;20065;-62
2022/02/02 14:04:49;;;;;;;3.03;2.17;;;;;;;6.05;100.00;97065.19;4991801;28;20047;-64
2022/02/02 14:26:09;;;;;;;1.52;1.10;;;;;;;5.89;100.00;97105.72;4996582;28;20050;-64
2022/02/02 14:31:23;;;;;;;2.53;1.33;;;;;;;6.02;100.00;97110.16;4991452;28;20172;-62
2022/02/02 14:33:54;;;;;;;3.75;2.53;;;;;;;5.91;100.00;97109.69;4991897;28;20108;-62
2022/02/02 14:36:24;;;;;;;5.63;2.58;;;;;;;5.97;100.00;97117.72;4998106;28;20042;-62
2022/02/02 14:46:13;;;;;;;5.15;3.00;;;;;;;6.04;100.00;97120.72;4998039;28;20153;-62
2022/02/02 14:48:46;;;;;;;2.90;1.80;;;;;;;6.08;100.00;97125.16;5002994;28;20125;-63
2022/02/02 15:31:36;;;;;;;4.40;1.30;;;;;;;5.89;100.00;97168.25;5004042;28;20046;-61
2022/02/02 15:34:04;;;;;;;3.13;1.35;;;;;;;5.82;100.00;97176.91;5002186;28;20041;-62
2022/02/02 15:39:24;;;;;;;3.58;1.90;;;;;;;5.77;100.00;97168.13;4965306;28;21710;-62
2022/02/02 16:03:13;;;;;;;5.20;2.50;;;;;;;5.98;100.00;97179.94;4990728;28;20038;-64
2022/02/02 16:08:07;;;;;;;6.68;2.85;;;;;;;6.07;100.00;97180.69;5003622;28;20054;-63
2022/02/02 16:11:02;;;;;;;5.22;2.85;;;;;;;6.16;100.00;97182.56;5013796;28;20085;-61
2022/02/02 16:36:06;;;;;;;13.75;4.78;;;;;;;6.39;100.00;97218.50;4993876;28;20446;-63
2022/02/02 16:38:34;;;;;;;13.70;5.47;;;;;;;6.25;100.00;97211.34;4995923;28;20106;-60
2022/02/02 16:41:04;;;;;;;8.68;4.30;;;;;;;6.24;100.00;97212.47;5003405;28;20046;-63
2022/02/02 16:43:30;;;;;;;8.75;3.10;;;;;;;6.32;100.00;97227.19;4995702;28;21004;-63
2022/02/02 16:45:55;;;;;;;4.30;2.40;;;;;;;6.16;100.00;97234.25;5003233;28;20129;-61
2022/02/02 16:48:23;;;;;;;4.20;2.42;;;;;;;6.01;100.00;97230.91;4993601;28;20054;-62
2022/02/02 16:50:52;;;;;;;2.97;1.90;;;;;;;5.96;100.00;97231.13;4994371;28;20038;-62
2022/02/02 16:55:57;;;;;;;3.22;1.55;;;;;;;5.82;100.00;97233.97;4997796;28;20053;-61
2022/02/02 17:33:09;;;;;;;5.45;2.97;;;;;;;5.42;100.00;97244.22;4998397;28;20706;-63
2022/02/02 17:35:46;;;;;;;5.68;3.60;;;;;;;5.42;100.00;97246.94;4979665;28;20057;-62
2022/02/02 17:56:13;;;;;;;7.60;4.53;;;;;;;5.50;100.00;97251.59;5004875;28;20049;-62
2022/02/02 18:20:59;;;;;;;7.38;5.65;;;;;;;5.67;100.00;97305.94;5000792;28;20056;-63
2022/02/02 18:26:01;;;;;;;11.15;7.80;;;;;;;5.80;100.00;97317.78;5001153;28;20069;-61
2022/02/02 18:28:44;;;;;;;7.47;5.82;;;;;;;5.82;100.00;97315.53;4994353;28;20129;-63
2022/02/02 18:40:18;;;;;;;7.68;5.50;;;;;;;5.67;100.00;97316.00;5000250;28;20038;-61
2022/02/02 18:49:52;;;;;;;12.95;6.63;;;;;;;5.83;100.00;97327.19;4979246;28;20038;-61
2022/02/02 18:58:00;;;;;;;12.23;8.55;;;;;;;5.71;100.00;97325.94;4966802;28;20248;-63
2022/02/02 19:03:23;;;;;;;12.32;7.53;;;;;;;5.69;100.00;97328.16;5001756;28;20046;-64
2022/02/02 19:39:34;;;;;;;11.25;8.77;;;;;;;5.62;100.00;97337.91;5001521;28;20051;-61
2022/02/02 20:03:32;;;;;;;12.07;8.90;;;;;;;5.50;100.00;97343.97;4996572;28;20037;-61
2022/02/02 20:08:46;;;;;;;13.43;9.98;;;;;;;5.53;100.00;97343.34;4998216;28;20065;-63
2022/02/02 20:11:20;;;;;;;13.25;9.75;;;;;;;5.52;100.00;97350.66;4990894;28;20042;-65
2022/02/02 20:13:46;;;;;;;11.38;8.70;;;;;;;5.57;100.00;97346.22;5004437;28;20104;-64
2022/02/02 20:16:12;;;;;;;11.98;8.68;;;;;;;5.57;100.00;97344.31;4996702;28;20038;-65
2022/02/02 20:18:42;;;;;;;13.70;8.85;;;;;;;5.60;100.00;97338.25;5004433;28;20080;-64
2022/02/02 20:21:09;;;;;;;;;;;;;;;5.56;100.00;97345.41;4990044;28;20038;-61
2022/02/02 20:23:43;;;;;;;11.90;8.82;;;;;;;5.54;100.00;97342.22;5000666;28;19921;-62
2022/02/02 20:26:11;;;;;;;10.85;8.10;;;;;;;5.58;100.00;97348.59;4978645;28;20050;-62
2022/02/02 20:28:37;;;;;;;10.73;7.72;;;;;;;5.64;100.00;97347.34;4977702;28;20070;-63
2022/02/02 20:31:02;;;;;;;10.32;7.50;;;;;;;5.59;100.00;97346.69;4990817;28;20084;-64
2022/02/02 20:33:28;;;;;;;11.45;8.35;;;;;;;5.59;100.00;97349.41;4996875;28;20041;-63
2022/02/02 20:35:54;;;;;;;12.95;8.73;;;;;;;5.61;100.00;97344.47;4999127;28;20070;-63
2022/02/02 20:38:19;;;;;;;11.68;8.38;;;;;;;5.60;100.00;97346.38;4995353;28;20034;-62
2022/02/02 20:40:45;;;;;;;121.10;54.33;;;;;;;5.55;100.00;97351.97;4998564;28;20073;-63
2022/02/02 20:43:14;;;;;;;16.25;11.15;;;;;;;5.56;100.00;97339.97;4995917;28;20529;-61
2022/02/02 21:03:11;;;;;;;19.42;10.82;;;;;;;5.80;100.00;97355.00;4993719;28;20077;-63
2022/02/02 21:10:33;;;;;;;13.43;9.43;;;;;;;5.87;100.00;97363.50;4995181;28;20100;-64
2022/02/02 21:15:43;;;;;;;13.85;9.05;;;;;;;5.85;100.00;97365.72;4992714;28;20137;-61
2022/02/02 21:18:13;;;;;;;13.45;8.38;;;;;;;5.89;100.00;97366.72;4991756;28;20550;-63
2022/02/02 21:28:25;;;;;;;11.13;8.32;;;;;;;5.82;100.00;97358.25;4989518;28;20042;-62
2022/02/02 21:30:51;;;;;;;9.88;6.80;;;;;;;5.87;100.00;97363.50;4992652;28;20038;-61
2022/02/02 21:33:17;;;;;;;8.52;6.70;;;;;;;5.82;100.00;97358.25;5001756;28;20045;-61
2022/02/02 21:35:45;;;;;;;10.73;7.95;;;;;;;5.69;100.00;97363.50;5003764;28;20069;-62
2022/02/02 21:38:26;;;;;;;12.13;7.60;;;;;;;5.66;100.00;97347.03;4995146;28;20042;-62
2022/02/02 21:40:56;;;;;;;12.38;8.18;;;;;;;5.59;100.00;97350.22;4984221;28;20038;-61
2022/02/02 21:43:23;;;;;;;12.85;8.13;;;;;;;5.65;100.00;97354.38;4985941;28;20100;-63
2022/02/02 21:45:48;;;;;;;13.18;8.18;;;;;;;5.70;100.00;97346.06;5005909;28;20124;-60
2022/02/02 21:48:14;;;;;;;10.45;7.70;;;;;;;5.73;100.00;97345.44;5016020;28;20119;-61
2022/02/02 21:50:54;;;;;;;10.18;7.70;;;;;;;5.65;100.00;97356.28;5024315;28;20043;-62
2022/02/02 21:53:20;;;;;;;11.30;7.45;;;;;;;5.64;100.00;97352.00;5016317;28;20052;-63
2022/02/02 21:55:45;;;;;;;12.82;8.77;;;;;;;5.69;100.00;97347.19;4997372;28;20479;-62
2022/02/02 21:58:11;;;;;;;29.50;14.55;;;;;;;5.87;100.00;97350.72;4990230;28;20034;-62
2022/02/02 22:00:38;;;;;;;14.40;8.35;;;;;;;5.81;100.00;97357.41;5009138;28;20543;-63
2022/02/02 22:03:03;;;;;;;9.25;6.75;;;;;;;5.87;100.00;97350.72;4992826;28;20045;-64
2022/02/02 22:05:29;;;;;;;10.25;6.45;;;;;;;5.85;100.00;97352.97;5001415;28;20050;-62
2022/02/02 22:07:55;;;;;;;9.18;6.60;;;;;;;5.80;100.00;97352.28;5003990;28;20050;-63
2022/02/02 22:10:21;;;;;;;9.68;6.70;;;;;;;5.77;100.00;97355.66;4996582;28;20049;-62
2022/02/02 22:12:46;;;;;;;9.32;7.03;;;;;;;5.73;100.00;97358.22;5004037;28;20053;-61
2022/02/02 22:15:18;;;;;;;21.15;13.05;;;;;;;5.67;100.00;97357.59;4996202;28;20084;-62
2022/02/02 22:17:45;;;;;;;10.38;7.20;;;;;;;5.68;100.00;97358.38;5001127;28;20104;-62
2022/02/02 22:20:13;;;;;;;11.57;7.70;;;;;;;5.65;100.00;97364.44;4996666;28;20406;-63
2022/02/02 22:22:43;;;;;;;12.52;8.02;;;;;;;5.67;100.00;97362.19;5003706;28;20431;-62
2022/02/02 22:25:10;;;;;;;9.30;6.65;;;;;;;5.70;100.00;97353.41;4997998;28;20580;-62
2022/02/02 22:27:36;;;;;;;9.88;7.00;;;;;;;5.67;100.00;97362.19;5000606;28;20046;-60
2022/02/02 22:30:03;;;;;;;8.70;6.72;;;;;;;5.64;100.00;97352.78;4999431;28;20038;-61
2022/02/02 22:32:29;;;;;;;10.88;7.47;;;;;;;5.60;100.00;97353.72;4997277;28;20053;-60
2022/02/02 22:34:54;;;;;;;9.15;7.10;;;;;;;5.66;100.00;97350.53;5000008;28;20124;-62
2022/02/02 22:37:21;;;;;;;9.88;7.45;;;;;;;5.67;100.00;97356.75;4995831;28;20571;-62
2022/02/02 22:39:48;;;;;;;9.80;7.15;;;;;;;5.67;100.00;97354.88;5002323;28;20046;-63
2022/02/02 22:42:15;;;;;;;9.40;7.15;;;;;;;5.66;100.00;97358.69;4993744;28;20049;-63
2022/02/02 22:44:41;;;;;;;11.90;7.18;;;;;;;5.68;100.00;97353.72;4999622;28;20175;-62
2022/02/02 22:47:08;;;;;;;8.85;6.10;;;;;;;5.67;100.00;97349.44;4997412;28;20133;-63
2022/02/02 22:49:37;;;;;;;9.43;6.47;;;;;;;5.67;100.00;97340.47;5002215;28;20042;-63
2022/02/02 22:52:03;;;;;;;9.10;6.75;;;;;;;5.67;100.00;97341.28;5000729;28;20050;-64
2022/02/02 22:54:29;;;;;;;7.68;5.60;;;;;;;5.63;100.00;97343.00;5012132;28;20049;-63
2022/02/02 22:56:54;;;;;;;9.80;6.38;;;;;;;5.63;100.00;97343.00;5011106;28;20038;-62
2022/02/02 22:59:20;;;;;;;9.30;5.90;;;;;;;5.66;100.00;97347.81;4997915;28;20045;-61